Wetterstation Vordersexau
Wetterdaten: Woche 25.04.11 - 01.05.11 (KW17)
Datum Zeit Temp. A. Feuchte A. Luftdruck Regen Wind Richtung Taupunkt Windchill Windben
25.04.2011 00:00 11,4 C 85 % 1014,8 hPa 0,0 l/m 0,0 km/h O 9,0 C 11,4 C 0,0 km/h
25.04.2011 01:00 10,4 C 85 % 1015,0 hPa 0,0 l/m 0,0 km/h O-SO 8,0 C 10,4 C 0,0 km/h
25.04.2011 02:00 9,3 C 86 % 1014,7 hPa 0,0 l/m 0,0 km/h O-SO 7,1 C 9,3 C 0,0 km/h
25.04.2011 03:00 9,3 C 85 % 1014,5 hPa 0,0 l/m 0,0 km/h O 6,9 C 9,3 C 0,0 km/h
25.04.2011 04:00 8,4 C 85 % 1014,7 hPa 0,0 l/m 0,0 km/h SO 6,0 C 8,4 C 0,0 km/h
25.04.2011 05:00 7,9 C 86 % 1014,5 hPa 0,0 l/m 0,0 km/h O-NO 5,7 C 7,9 C 0,0 km/h
25.04.2011 06:00 7,9 C 86 % 1014,6 hPa 0,0 l/m 0,0 km/h NO 5,7 C 7,9 C 0,0 km/h
25.04.2011 07:00 8,1 C 85 % 1015,1 hPa 0,0 l/m 0,0 km/h SO 5,7 C 8,1 C 0,0 km/h
25.04.2011 08:00 13,8 C 80 % 1015,1 hPa 0,0 l/m 0,0 km/h N-NO 10,4 C 13,8 C 0,0 km/h
25.04.2011 09:00 18,9 C 67 % 1015,3 hPa 0,0 l/m 1,9 km/h NW 12,6 C 18,9 C 1,1 km/h
25.04.2011 10:00 21,9 C 58 % 1015,0 hPa 0,0 l/m 0,0 km/h W 13,3 C 21,9 C 0,0 km/h
25.04.2011 11:00 21,5 C 58 % 1014,9 hPa 0,0 l/m 7,8 km/h W 12,9 C 21,0 C 4,3 km/h
25.04.2011 12:00 23,5 C 53 % 1014,5 hPa 0,0 l/m 7,8 km/h S 13,4 C 23,1 C 4,3 km/h
25.04.2011 13:00 25,1 C 48 % 1013,7 hPa 0,0 l/m 7,8 km/h N 13,3 C 24,8 C 4,3 km/h
25.04.2011 14:00 26,3 C 32 % 1013,1 hPa 0,0 l/m 20,7 km/h N-NW 8,3 C 24,3 C 11,5 km/h
25.04.2011 15:00 28,3 C 26 % 1012,7 hPa 0,0 l/m 3,9 km/h N-NO 6,9 C 28,3 C 2,2 km/h
25.04.2011 16:00 30,4 C 22 % 1012,2 hPa 0,0 l/m 3,2 km/h O-NO 6,3 C 30,4 C 1,8 km/h
25.04.2011 17:00 30,9 C 21 % 1012,3 hPa 0,0 l/m 0,0 km/h N-NO 6,0 C 30,9 C 0,0 km/h
25.04.2011 18:00 29,3 C 22 % 1012,4 hPa 0,0 l/m 7,1 km/h NO 5,4 C 29,2 C 4,0 km/h
25.04.2011 19:00 24,9 C 26 % 1012,4 hPa 0,0 l/m 14,9 km/h N-NO 4,1 C 23,2 C 8,3 km/h
25.04.2011 20:00 17,4 C 35 % 1012,9 hPa 0,0 l/m 0,0 km/h N-NO 1,8 C 17,4 C 0,0 km/h
25.04.2011 21:00 15,8 C 39 % 1013,9 hPa 0,0 l/m 0,0 km/h N-NO 1,9 C 15,8 C 0,0 km/h
25.04.2011 22:00 15,1 C 41 % 1014,2 hPa 0,0 l/m 0,0 km/h NO 2,0 C 15,1 C 0,0 km/h
25.04.2011 23:00 13,2 C 48 % 1014,5 hPa 0,0 l/m 0,0 km/h NO 2,4 C 13,2 C 0,0 km/h
26.04.2011 00:00 11,9 C 52 % 1014,7 hPa 0,0 l/m 1,9 km/h N-NO 2,4 C 11,9 C 1,1 km/h
26.04.2011 01:00 9,2 C 64 % 1015,1 hPa 0,0 l/m 0,0 km/h SO 2,8 C 9,2 C 0,0 km/h
26.04.2011 02:00 10,2 C 64 % 1014,6 hPa 0,0 l/m 0,0 km/h N 3,7 C 10,2 C 0,0 km/h
26.04.2011 03:00 9,2 C 66 % 1014,4 hPa 0,0 l/m 0,0 km/h SO 3,2 C 9,2 C 0,0 km/h
26.04.2011 04:00 8,5 C 68 % 1014,6 hPa 0,0 l/m 0,0 km/h N-NO 2,9 C 8,5 C 0,0 km/h
26.04.2011 05:00 6,9 C 74 % 1014,7 hPa 0,0 l/m 0,0 km/h SO 2,6 C 6,9 C 0,0 km/h
26.04.2011 06:00 4,8 C 81 % 1014,8 hPa 0,0 l/m 0,0 km/h W 1,8 C 4,8 C 0,0 km/h
26.04.2011 07:00 5,9 C 83 % 1015,3 hPa 0,0 l/m 0,0 km/h W-NW 3,2 C 5,9 C 0,0 km/h
26.04.2011 08:00 13,6 C 70 % 1015,5 hPa 0,0 l/m 0,0 km/h W 8,2 C 13,6 C 0,0 km/h
26.04.2011 09:00 18,9 C 50 % 1015,5 hPa 0,0 l/m 0,0 km/h O-SO 8,2 C 18,9 C 0,0 km/h
26.04.2011 10:00 22,4 C 40 % 1015,2 hPa 0,0 l/m 0,0 km/h N 8,1 C 22,4 C 0,0 km/h
26.04.2011 11:00 22,1 C 38 % 1015,0 hPa 0,0 l/m 0,0 km/h NO 7,1 C 22,1 C 0,0 km/h
26.04.2011 12:00 22,4 C 34 % 1014,9 hPa 0,0 l/m 0,0 km/h N 5,8 C 22,4 C 0,0 km/h
26.04.2011 13:00 23,3 C 31 % 1014,4 hPa 0,0 l/m 13,6 km/h N 5,2 C 21,5 C 7,6 km/h
26.04.2011 14:00 23,8 C 33 % 1014,3 hPa 0,0 l/m 14,9 km/h N-NW 6,6 C 21,9 C 8,3 km/h
26.04.2011 15:00 21,9 C 37 % 1013,7 hPa 0,0 l/m 0,0 km/h N-NO 6,5 C 21,9 C 0,0 km/h
26.04.2011 16:00 27,2 C 28 % 1013,2 hPa 0,0 l/m 5,2 km/h N-NO 7,1 C 27,2 C 2,9 km/h
26.04.2011 17:00 24,1 C 31 % 1013,1 hPa 0,0 l/m 0,0 km/h NO 5,9 C 24,1 C 0,0 km/h
26.04.2011 18:00 23,8 C 33 % 1013,1 hPa 0,0 l/m 3,9 km/h N-NO 6,6 C 23,8 C 2,2 km/h
26.04.2011 19:00 19,3 C 38 % 1013,2 hPa 0,0 l/m 0,0 km/h N-NO 4,6 C 19,3 C 0,0 km/h
26.04.2011 20:00 15,3 C 48 % 1013,6 hPa 0,0 l/m 0,0 km/h SO 4,4 C 15,3 C 0,0 km/h
26.04.2011 21:00 12,1 C 65 % 1014,1 hPa 0,0 l/m 0,0 km/h SO 5,7 C 12,1 C 0,0 km/h
26.04.2011 22:00 9,9 C 72 % 1014,1 hPa 0,0 l/m 0,0 km/h N-NO 5,1 C 9,9 C 0,0 km/h
26.04.2011 23:00 11,4 C 70 % 1014,0 hPa 0,0 l/m 0,0 km/h W-SW 6,1 C 11,4 C 0,0 km/h
27.04.2011 00:00 11,1 C 73 % 1014,0 hPa 0,0 l/m 0,0 km/h W-SW 6,4 C 11,1 C 0,0 km/h
27.04.2011 01:00 8,4 C 77 % 1013,8 hPa 0,0 l/m 0,0 km/h NO 4,6 C 8,4 C 0,0 km/h
27.04.2011 02:00 7,8 C 80 % 1013,3 hPa 0,0 l/m 0,0 km/h O-SO 4,6 C 7,8 C 0,0 km/h
27.04.2011 03:00 7,3 C 82 % 1013,4 hPa 0,0 l/m 0,0 km/h O-SO 4,4 C 7,3 C 0,0 km/h
27.04.2011 04:00 8,4 C 82 % 1013,3 hPa 0,0 l/m 0,0 km/h SO 5,5 C 8,4 C 0,0 km/h
27.04.2011 05:00 9,0 C 82 % 1013,1 hPa 0,0 l/m 0,0 km/h O 6,1 C 9,0 C 0,0 km/h
27.04.2011 06:00 9,3 C 81 % 1013,3 hPa 0,0 l/m 0,0 km/h O-SO 6,2 C 9,3 C 0,0 km/h
27.04.2011 07:00 9,9 C 82 % 1013,7 hPa 0,0 l/m 0,0 km/h SO 7,0 C 9,9 C 0,0 km/h
27.04.2011 08:00 11,0 C 80 % 1013,8 hPa 0,0 l/m 0,0 km/h W-NW 7,7 C 11,0 C 0,0 km/h
27.04.2011 09:00 14,7 C 72 % 1013,6 hPa 0,0 l/m 0,0 km/h N 9,7 C 14,7 C 0,0 km/h
27.04.2011 10:00 15,1 C 66 % 1013,6 hPa 0,0 l/m 0,0 km/h N-NO 8,8 C 15,1 C 0,0 km/h
27.04.2011 11:00 20,5 C 51 % 1013,5 hPa 0,0 l/m 22,0 km/h N-NO 10,0 C 16,5 C 12,2 km/h
27.04.2011 12:00 19,5 C 52 % 1013,1 hPa 0,0 l/m 0,0 km/h N-NO 9,4 C 19,5 C 0,0 km/h
27.04.2011 13:00 19,3 C 47 % 1012,8 hPa 0,0 l/m 4,5 km/h N-NO 7,7 C 19,3 C 2,5 km/h
27.04.2011 14:00 19,8 C 44 % 1012,4 hPa 0,0 l/m 0,6 km/h O 7,2 C 19,8 C 0,4 km/h
27.04.2011 15:00 20,8 C 42 % 1012,1 hPa 0,0 l/m 0,0 km/h SO 7,4 C 20,8 C 0,0 km/h
27.04.2011 16:00 25,9 C 33 % 1011,7 hPa 0,0 l/m 2,6 km/h N 8,4 C 25,9 C 1,4 km/h
27.04.2011 17:00 20,2 C 41 % 1011,6 hPa 0,0 l/m 10,4 km/h N-NO 6,5 C 18,7 C 5,8 km/h
27.04.2011 18:00 18,8 C 44 % 1011,5 hPa 0,0 l/m 4,5 km/h N-NO 6,3 C 18,8 C 2,5 km/h
27.04.2011 19:00 18,2 C 44 % 1011,4 hPa 0,0 l/m 0,0 km/h N-NO 5,7 C 18,2 C 0,0 km/h
27.04.2011 20:00 13,0 C 59 % 1011,9 hPa 0,0 l/m 0,0 km/h SO 5,2 C 13,0 C 0,0 km/h
27.04.2011 21:00 9,1 C 73 % 1012,5 hPa 0,0 l/m 0,0 km/h SO 4,5 C 9,1 C 0,0 km/h
27.04.2011 22:00 7,3 C 79 % 1012,6 hPa 0,0 l/m 0,0 km/h SO 3,9 C 7,3 C 0,0 km/h
27.04.2011 23:00 7,8 C 81 % 1012,5 hPa 0,0 l/m 0,0 km/h O 4,7 C 7,8 C 0,0 km/h
28.04.2011 00:00 5,9 C 83 % 1012,3 hPa 0,0 l/m 0,0 km/h O 3,2 C 5,9 C 0,0 km/h
28.04.2011 01:00 5,5 C 84 % 1012,4 hPa 0,0 l/m 0,0 km/h SO 3,0 C 5,5 C 0,0 km/h
28.04.2011 02:00 5,0 C 85 % 1011,7 hPa 0,0 l/m 0,0 km/h SO 2,7 C 5,0 C 0,0 km/h
28.04.2011 03:00 4,9 C 85 % 1011,3 hPa 0,0 l/m 0,0 km/h O 2,6 C 4,9 C 0,0 km/h
28.04.2011 04:00 4,2 C 85 % 1011,3 hPa 0,0 l/m 0,0 km/h O-SO 1,9 C 4,2 C 0,0 km/h
28.04.2011 05:00 3,7 C 86 % 1011,2 hPa 0,0 l/m 0,0 km/h O-NO 1,6 C 3,7 C 0,0 km/h
28.04.2011 06:00 3,4 C 86 % 1011,3 hPa 0,0 l/m 0,0 km/h NO 1,3 C 3,4 C 0,0 km/h
28.04.2011 07:00 4,7 C 86 % 1011,5 hPa 0,0 l/m 0,0 km/h SO 2,6 C 4,7 C 0,0 km/h
28.04.2011 08:00 12,3 C 84 % 1011,6 hPa 0,0 l/m 0,0 km/h S-SW 9,7 C 12,3 C 0,0 km/h
28.04.2011 09:00 13,4 C 71 % 1011,5 hPa 0,0 l/m 0,0 km/h W-NW 8,3 C 13,4 C 0,0 km/h
28.04.2011 10:00 17,0 C 58 % 1011,3 hPa 0,0 l/m 0,0 km/h N-NW 8,7 C 17,0 C 0,0 km/h
28.04.2011 11:00 19,4 C 54 % 1010,9 hPa 0,0 l/m 1,9 km/h W-NW 9,8 C 19,4 C 1,1 km/h
28.04.2011 12:00 21,2 C 48 % 1010,1 hPa 0,0 l/m 6,5 km/h W-SW 9,7 C 21,2 C 3,6 km/h
28.04.2011 13:00 20,1 C 49 % 1009,7 hPa 0,0 l/m 0,0 km/h N-NW 9,0 C 20,1 C 0,0 km/h
28.04.2011 14:00 21,2 C 47 % 1009,2 hPa 0,0 l/m 0,6 km/h N 9,4 C 21,2 C 0,4 km/h
28.04.2011 15:00 21,4 C 49 % 1008,7 hPa 0,0 l/m 1,3 km/h N-NO 10,2 C 21,4 C 0,7 km/h
28.04.2011 16:00 25,3 C 40 % 1008,0 hPa 0,0 l/m 9,1 km/h N-NO 10,7 C 24,7 C 5,0 km/h
28.04.2011 17:00 21,5 C 44 % 1007,5 hPa 0,0 l/m 7,8 km/h N 8,7 C 21,0 C 4,3 km/h
28.04.2011 18:00 19,1 C 51 % 1007,6 hPa 0,0 l/m 0,0 km/h N-NO 8,7 C 19,1 C 0,0 km/h
28.04.2011 19:00 17,9 C 57 % 1008,0 hPa 0,0 l/m 0,0 km/h N-NO 9,3 C 17,9 C 0,0 km/h
28.04.2011 20:00 14,9 C 67 % 1008,0 hPa 0,0 l/m 0,0 km/h SO 8,8 C 14,9 C 0,0 km/h
28.04.2011 21:00 13,6 C 74 % 1008,4 hPa 0,0 l/m 0,0 km/h O-SO 9,1 C 13,6 C 0,0 km/h
28.04.2011 22:00 12,2 C 80 % 1008,2 hPa 0,0 l/m 0,0 km/h SO 8,9 C 12,2 C 0,0 km/h
28.04.2011 23:00 10,6 C 82 % 1007,8 hPa 0,0 l/m 0,0 km/h NO 7,7 C 10,6 C 0,0 km/h
29.04.2011 00:00 9,9 C 84 % 1008,3 hPa 0,0 l/m 0,0 km/h NO 7,3 C 9,9 C 0,0 km/h
29.04.2011 01:00 8,4 C 85 % 1008,1 hPa 0,0 l/m 0,0 km/h NO 6,0 C 8,4 C 0,0 km/h
29.04.2011 02:00 8,5 C 85 % 1007,5 hPa 0,0 l/m 3,2 km/h O-SO 6,1 C 8,5 C 1,8 km/h
29.04.2011 03:00 8,1 C 86 % 1007,1 hPa 0,0 l/m 0,0 km/h SO 5,9 C 8,1 C 0,0 km/h
29.04.2011 04:00 8,1 C 86 % 1006,9 hPa 0,0 l/m 0,0 km/h N-NO 5,9 C 8,1 C 0,0 km/h
29.04.2011 05:00 7,3 C 86 % 1006,9 hPa 0,0 l/m 0,0 km/h NO 5,1 C 7,3 C 0,0 km/h
29.04.2011 06:00 7,6 C 85 % 1006,9 hPa 0,0 l/m 0,0 km/h O 5,2 C 7,6 C 0,0 km/h
29.04.2011 07:00 9,5 C 86 % 1006,8 hPa 0,0 l/m 0,0 km/h O-NO 7,3 C 9,5 C 0,0 km/h
29.04.2011 08:00 12,3 C 82 % 1007,0 hPa 0,0 l/m 0,0 km/h W-SW 9,3 C 12,3 C 0,0 km/h
29.04.2011 09:00 15,5 C 71 % 1006,9 hPa 0,0 l/m 0,6 km/h SW 10,3 C 15,5 C 0,4 km/h
29.04.2011 10:00 20,4 C 57 % 1006,8 hPa 0,0 l/m 1,3 km/h S 11,6 C 20,4 C 0,7 km/h
29.04.2011 11:00 20,9 C 56 % 1006,5 hPa 0,0 l/m 0,0 km/h W-SW 11,8 C 20,9 C 0,0 km/h
29.04.2011 12:00 19,8 C 56 % 1006,1 hPa 0,0 l/m 0,0 km/h W 10,8 C 19,8 C 0,0 km/h
29.04.2011 13:00 17,6 C 66 % 1005,9 hPa 0,0 l/m 0,0 km/h W-SW 11,2 C 17,6 C 0,0 km/h
29.04.2011 14:00 17,8 C 68 % 1005,7 hPa 0,0 l/m 17,5 km/h NO 11,8 C 13,9 C 9,7 km/h
29.04.2011 15:00 15,3 C 75 % 1005,5 hPa 0,0 l/m 0,0 km/h N-NO 10,9 C 15,3 C 0,0 km/h
29.04.2011 16:00 12,9 C 81 % 1005,0 hPa 0,0 l/m 0,0 km/h S-SO 9,7 C 12,9 C 0,0 km/h
29.04.2011 17:00 12,5 C 84 % 1005,2 hPa 0,0 l/m 6,5 km/h SO 9,9 C 12,5 C 3,6 km/h
29.04.2011 18:00 12,4 C 84 % 1004,5 hPa 0,0 l/m 1,9 km/h SO 9,8 C 12,4 C 1,1 km/h
29.04.2011 19:00 12,2 C 85 % 1004,1 hPa 0,0 l/m 5,2 km/h W-NW 9,8 C 12,2 C 2,9 km/h
29.04.2011 20:00 12,1 C 85 % 1004,7 hPa 2,5 l/m 0,0 km/h S-SO 9,7 C 12,1 C 0,0 km/h
29.04.2011 21:00 11,8 C 85 % 1005,7 hPa 0,0 l/m 0,0 km/h S-SO 9,4 C 11,8 C 0,0 km/h
29.04.2011 22:00 11,4 C 85 % 1005,8 hPa 0,0 l/m 0,0 km/h O-NO 9,0 C 11,4 C 0,0 km/h
29.04.2011 23:00 10,6 C 85 % 1005,6 hPa 0,0 l/m 0,0 km/h SO 8,2 C 10,6 C 0,0 km/h
30.04.2011 00:00 9,2 C 85 % 1005,2 hPa 0,0 l/m 0,0 km/h SO 6,8 C 9,2 C 0,0 km/h
30.04.2011 01:00 8,8 C 85 % 1005,2 hPa 0,0 l/m 0,0 km/h NO 6,4 C 8,8 C 0,0 km/h
30.04.2011 02:00 7,8 C 85 % 1005,0 hPa 0,0 l/m 0,0 km/h NO 5,4 C 7,8 C 0,0 km/h
30.04.2011 03:00 6,7 C 85 % 1005,1 hPa 0,0 l/m 0,0 km/h NO 4,4 C 6,7 C 0,0 km/h
30.04.2011 04:00 8,1 C 84 % 1004,6 hPa 0,0 l/m 0,0 km/h SO 5,6 C 8,1 C 0,0 km/h
30.04.2011 05:00 8,1 C 84 % 1004,4 hPa 0,0 l/m 0,0 km/h O-NO 5,6 C 8,1 C 0,0 km/h
30.04.2011 06:00 8,4 C 83 % 1004,3 hPa 0,0 l/m 0,0 km/h SO 5,7 C 8,4 C 0,0 km/h
30.04.2011 07:00 9,3 C 83 % 1004,2 hPa 0,0 l/m 0,0 km/h SO 6,6 C 9,3 C 0,0 km/h
30.04.2011 08:00 12,9 C 87 % 1004,3 hPa 0,0 l/m 0,0 km/h S-SO 10,8 C 12,9 C 0,0 km/h
30.04.2011 09:00 14,8 C 77 % 1004,3 hPa 0,0 l/m 0,0 km/h W-SW 10,8 C 14,8 C 0,0 km/h
30.04.2011 10:00 14,5 C 76 % 1004,4 hPa 0,0 l/m 0,6 km/h N-NO 10,3 C 14,5 C 0,4 km/h
30.04.2011 11:00 18,9 C 64 % 1004,3 hPa 0,0 l/m 15,6 km/h NW 11,9 C 15,8 C 8,6 km/h
30.04.2011 12:00 19,3 C 65 % 1003,8 hPa 0,0 l/m 1,3 km/h N 12,6 C 19,3 C 0,7 km/h
30.04.2011 13:00 20,9 C 62 % 1003,1 hPa 0,0 l/m 8,4 km/h W 13,3 C 20,2 C 4,7 km/h
30.04.2011 14:00 18,2 C 68 % 1002,8 hPa 0,0 l/m 5,8 km/h S-SO 12,2 C 18,2 C 3,2 km/h
30.04.2011 15:00 16,6 C 74 % 1002,9 hPa 0,0 l/m 1,3 km/h SO 11,9 C 16,6 C 0,7 km/h
30.04.2011 16:00 12,2 C 84 % 1002,8 hPa 3,6 l/m 12,3 km/h O-NO 9,6 C 8,9 C 6,8 km/h
30.04.2011 17:00 17,3 C 80 % 1002,4 hPa 0,0 l/m 0,0 km/h SO 13,8 C 17,3 C 0,0 km/h
30.04.2011 18:00 23,4 C 55 % 1002,2 hPa 0,0 l/m 0,0 km/h O-SO 13,8 C 23,4 C 0,0 km/h
30.04.2011 19:00 15,4 C 75 % 1002,3 hPa 0,0 l/m 0,0 km/h O-NO 11,0 C 15,4 C 0,0 km/h
30.04.2011 20:00 13,5 C 81 % 1002,5 hPa 0,0 l/m 0,0 km/h S 10,3 C 13,5 C 0,0 km/h
30.04.2011 21:00 11,9 C 82 % 1003,0 hPa 0,0 l/m 0,0 km/h NO 8,9 C 11,9 C 0,0 km/h
30.04.2011 22:00 11,6 C 83 % 1003,4 hPa 0,0 l/m 0,0 km/h O 8,8 C 11,6 C 0,0 km/h
30.04.2011 23:00 10,4 C 85 % 1003,8 hPa 0,0 l/m 0,0 km/h O 8,0 C 10,4 C 0,0 km/h
01.05.2011 00:00 9,9 C 86 % 1003,7 hPa 0,0 l/m 0,0 km/h O-NO 7,7 C 9,9 C 0,0 km/h
01.05.2011 01:00 9,6 C 86 % 1003,5 hPa 0,0 l/m 0,0 km/h N-NO 7,4 C 9,6 C 0,0 km/h
01.05.2011 02:00 8,4 C 86 % 1003,3 hPa 0,0 l/m 0,0 km/h S-SO 6,2 C 8,4 C 0,0 km/h
01.05.2011 03:00 7,9 C 86 % 1003,4 hPa 0,0 l/m 0,0 km/h NO 5,7 C 7,9 C 0,0 km/h
01.05.2011 04:00 7,4 C 86 % 1003,6 hPa 0,0 l/m 0,0 km/h O-SO 5,2 C 7,4 C 0,0 km/h
01.05.2011 05:00 6,4 C 86 % 1004,0 hPa 0,0 l/m 0,0 km/h SO 4,2 C 6,4 C 0,0 km/h
01.05.2011 06:00 7,2 C 85 % 1004,1 hPa 0,0 l/m 0,6 km/h NO 4,9 C 7,2 C 0,4 km/h
01.05.2011 07:00 8,1 C 84 % 1004,7 hPa 0,0 l/m 0,0 km/h N-NW 5,6 C 8,1 C 0,0 km/h
01.05.2011 08:00 14,0 C 85 % 1005,2 hPa 0,0 l/m 0,0 km/h W-NW 11,5 C 14,0 C 0,0 km/h
01.05.2011 09:00 19,1 C 65 % 1005,0 hPa 0,0 l/m 0,0 km/h NW 12,4 C 19,1 C 0,0 km/h
01.05.2011 10:00 21,5 C 57 % 1005,3 hPa 0,0 l/m 7,8 km/h N-NO 12,6 C 21,0 C 4,3 km/h
01.05.2011 11:00 21,7 C 58 % 1005,2 hPa 0,0 l/m 0,0 km/h W 13,1 C 21,7 C 0,0 km/h
01.05.2011 12:00 22,6 C 57 % 1004,7 hPa 0,4 l/m 0,0 km/h SO 13,6 C 22,6 C 0,0 km/h
01.05.2011 13:00 22,4 C 51 % 1004,4 hPa 0,0 l/m 0,0 km/h N-NO 11,8 C 22,4 C 0,0 km/h
01.05.2011 14:00 26,1 C 38 % 1004,2 hPa 0,0 l/m 4,5 km/h W-SW 10,7 C 26,1 C 2,5 km/h
01.05.2011 15:00 25,3 C 45 % 1003,8 hPa 0,0 l/m 4,5 km/h W-SW 12,5 C 25,3 C 2,5 km/h
01.05.2011 16:00 17,9 C 62 % 1003,9 hPa 0,0 l/m 0,0 km/h S-SO 10,5 C 17,9 C 0,0 km/h
01.05.2011 17:00 16,5 C 74 % 1004,2 hPa 0,0 l/m 0,0 km/h O-NO 11,8 C 16,5 C 0,0 km/h
01.05.2011 18:00 24,7 C 50 % 1004,4 hPa 0,0 l/m 0,0 km/h NO 13,6 C 24,7 C 0,0 km/h
01.05.2011 19:00 18,6 C 59 % 1004,6 hPa 0,0 l/m 0,0 km/h S-SO 10,4 C 18,6 C 0,0 km/h
01.05.2011 20:00 15,8 C 66 % 1004,8 hPa 0,0 l/m 0,0 km/h SO 9,5 C 15,8 C 0,0 km/h
01.05.2011 21:00 12,9 C 75 % 1005,5 hPa 0,0 l/m 0,0 km/h O-NO 8,6 C 12,9 C 0,0 km/h
01.05.2011 22:00 10,4 C 80 % 1005,4 hPa 0,0 l/m 0,0 km/h SO 7,1 C 10,4 C 0,0 km/h
01.05.2011 23:00 9,5 C 84 % 1005,5 hPa 0,0 l/m 1,9 km/h O-NO 6,9 C 9,5 C 1,1 km/h
Min-Datum _ 28.04.11 25.04.11 30.04.11 - 25.04.11 - 28.04.11 28.04.11 25.04.11
_ Min-Zeit 06:30 17:30 18:30 - 00:30 - 06:30 06:30 00:30
Minimum _ 3,4 C 21 % 1002,2 hPa - 0,0 km/h - 1,3 C 3,4 C 0,0 km/h
Max-Datum _ 25.04.11 30.04.11 26.04.11 30.04.11 27.04.11 - 30.04.11 25.04.11 27.04.11
_ Max-Zeit 17:30 08:30 08:30 16:30 11:30 - 18:30 17:30 11:30
Maximum _ 30,9 C 87 % 1015,5 hPa 3,6 l/m 22,0 km/h
N-NO
- 13,8 C 30,9 C 12,2 km/h
N-NO
Durchschnitt _ 14,5 C 67 % 1009,4 hPa #6,4 l/m 1,7 km/h SO 7,6 C 14,4 C 1,0 km/h
www.sexauwetter.de